RYR55E LKPR-EDDK
Flight info
| Callsign | RYR55E |
|---|---|
| Flight time | 1h 1m |
| Altitude | 32000 |
| Route | BALTU DCT DONAD DCT RAPET T843 VELIS DCT MASEK T841 ERNEP ERNEP1B |
| Aircraft | B738/M-SDE2E3FGHIRWXY/LB1 |
Departure
| Time | 2026-05-06 19:12 |
|---|---|
| Airport | Václav Havel Airport Prague (LKPR) |
Arrival
| Time | 2026-05-06 20:14 |
|---|---|
| Airport | Cologne Bonn Airport (EDDK) |
| Time | Latitude | Longitude | Altitude | Speed | Heading |
|---|---|---|---|---|---|
| 2026-05-06 18:29 | 50.10591 | 14.26275 | 1255 ft | 0 kts | 35° |
| 2026-05-06 19:01 | 50.10587 | 14.26271 | 1255 ft | 0 kts | 35° |
| 2026-05-06 19:02 | 50.10576 | 14.26260 | 1255 ft | 2 kts | 18° |
| 2026-05-06 19:02 | 50.10562 | 14.26255 | 1255 ft | 2 kts | 3° |
| 2026-05-06 19:02 | 50.10548 | 14.26257 | 1255 ft | 2 kts | 347° |
| 2026-05-06 19:02 | 50.10535 | 14.26264 | 1255 ft | 2 kts | 330° |
| 2026-05-06 19:03 | 50.10523 | 14.26277 | 1255 ft | 2 kts | 314° |
| 2026-05-06 19:03 | 50.10517 | 14.26288 | 1255 ft | 1 kts | 304° |
| 2026-05-06 19:03 | 50.10515 | 14.26294 | 1255 ft | 0 kts | 303° |
| 2026-05-06 19:05 | 50.10516 | 14.26292 | 1255 ft | 1 kts | 303° |
| 2026-05-06 19:05 | 50.10523 | 14.26267 | 1255 ft | 4 kts | 291° |
| 2026-05-06 19:06 | 50.10537 | 14.26211 | 1255 ft | 7 kts | 287° |
| 2026-05-06 19:06 | 50.10535 | 14.26124 | 1255 ft | 9 kts | 259° |
| 2026-05-06 19:06 | 50.10522 | 14.26019 | 1255 ft | 10 kts | 255° |
| 2026-05-06 19:06 | 50.10534 | 14.25901 | 1255 ft | 12 kts | 302° |
| 2026-05-06 19:07 | 50.10587 | 14.25773 | 1255 ft | 15 kts | 302° |
| 2026-05-06 19:07 | 50.10627 | 14.25671 | 1255 ft | 16 kts | 298° |
| 2026-05-06 19:07 | 50.10607 | 14.25492 | 1255 ft | 7 kts | 248° |
| 2026-05-06 19:07 | 50.10600 | 14.25462 | 1255 ft | 2 kts | 252° |
| 2026-05-06 19:08 | 50.10594 | 14.25428 | 1255 ft | 0 kts | 256° |
| 2026-05-06 19:08 | 50.10592 | 14.25412 | 1255 ft | 4 kts | 258° |
| 2026-05-06 19:08 | 50.10591 | 14.25400 | 1255 ft | 0 kts | 258° |
| 2026-05-06 19:09 | 50.10582 | 14.25334 | 1255 ft | 12 kts | 259° |
| 2026-05-06 19:09 | 50.10574 | 14.25268 | 1255 ft | 0 kts | 258° |
| 2026-05-06 19:10 | 50.10574 | 14.25266 | 1255 ft | 1 kts | 258° |
| 2026-05-06 19:10 | 50.10557 | 14.25192 | 1255 ft | 12 kts | 244° |
| 2026-05-06 19:10 | 50.10515 | 14.25141 | 1255 ft | 6 kts | 151° |
| 2026-05-06 19:11 | 50.10500 | 14.25162 | 1255 ft | 0 kts | 130° |
| 2026-05-06 19:11 | 50.10494 | 14.25174 | 1255 ft | 7 kts | 130° |
| 2026-05-06 19:11 | 50.10321 | 14.25531 | 1255 ft | 80 kts | 126° |
| 2026-05-06 19:11 | 50.09839 | 14.26529 | 1256 ft | 144 kts | 126° |
| 2026-05-06 19:12 | 50.09167 | 14.27902 | 1521 ft | 167 kts | 127° |
| 2026-05-06 19:12 | 50.08415 | 14.29367 | 2015 ft | 176 kts | 127° |
| 2026-05-06 19:12 | 50.07800 | 14.30563 | 2479 ft | 178 kts | 127° |
| 2026-05-06 19:12 | 50.07084 | 14.32157 | 3007 ft | 182 kts | 124° |
| 2026-05-06 19:13 | 50.06352 | 14.33714 | 3456 ft | 184 kts | 126° |
| 2026-05-06 19:13 | 50.05543 | 14.35398 | 3661 ft | 203 kts | 127° |
| 2026-05-06 19:13 | 50.04688 | 14.37166 | 4022 ft | 205 kts | 127° |
| 2026-05-06 19:13 | 50.03833 | 14.38930 | 4362 ft | 204 kts | 127° |
| 2026-05-06 19:14 | 50.02972 | 14.40705 | 4720 ft | 205 kts | 127° |
| 2026-05-06 19:14 | 50.02117 | 14.42466 | 5110 ft | 205 kts | 127° |
| 2026-05-06 19:14 | 50.01262 | 14.44225 | 5565 ft | 206 kts | 127° |
| 2026-05-06 19:14 | 50.00386 | 14.46027 | 6010 ft | 210 kts | 127° |
| 2026-05-06 19:15 | 49.99587 | 14.47945 | 6460 ft | 214 kts | 110° |
| 2026-05-06 19:15 | 49.99532 | 14.50219 | 6863 ft | 217 kts | 71° |
| 2026-05-06 19:15 | 50.00447 | 14.52026 | 7169 ft | 224 kts | 32° |
| 2026-05-06 19:15 | 50.01847 | 14.53176 | 7492 ft | 231 kts | 30° |
| 2026-05-06 19:16 | 50.03112 | 14.54695 | 7785 ft | 232 kts | 40° |
| 2026-05-06 19:16 | 50.04371 | 14.56286 | 8082 ft | 233 kts | 37° |
| 2026-05-06 19:16 | 50.05666 | 14.57815 | 8368 ft | 240 kts | 36° |
| 2026-05-06 19:16 | 50.07042 | 14.59420 | 8681 ft | 250 kts | 36° |
| 2026-05-06 19:17 | 50.08445 | 14.61048 | 8983 ft | 259 kts | 36° |
| 2026-05-06 19:17 | 50.09903 | 14.62738 | 9283 ft | 262 kts | 36° |
| 2026-05-06 19:17 | 50.11409 | 14.64387 | 9578 ft | 265 kts | 28° |
| 2026-05-06 19:17 | 50.13200 | 14.65162 | 9841 ft | 275 kts | 359° |
| 2026-05-06 19:18 | 50.15048 | 14.64480 | 10203 ft | 277 kts | 334° |
| 2026-05-06 19:18 | 50.16601 | 14.62758 | 10632 ft | 280 kts | 311° |
| 2026-05-06 19:18 | 50.17496 | 14.60078 | 11065 ft | 282 kts | 280° |
| 2026-05-06 19:18 | 50.17490 | 14.57004 | 11524 ft | 284 kts | 264° |
| 2026-05-06 19:19 | 50.17451 | 14.53932 | 11940 ft | 286 kts | 274° |
| 2026-05-06 19:19 | 50.17606 | 14.50831 | 12364 ft | 287 kts | 274° |
| 2026-05-06 19:19 | 50.17693 | 14.47719 | 12788 ft | 289 kts | 272° |
| 2026-05-06 19:19 | 50.17753 | 14.44583 | 13213 ft | 291 kts | 272° |
| 2026-05-06 19:20 | 50.17811 | 14.41416 | 13643 ft | 297 kts | 272° |
| 2026-05-06 19:20 | 50.17865 | 14.38168 | 14068 ft | 307 kts | 272° |
| 2026-05-06 19:20 | 50.17915 | 14.34854 | 14486 ft | 309 kts | 271° |
| 2026-05-06 19:20 | 50.17963 | 14.31484 | 14873 ft | 311 kts | 271° |
| 2026-05-06 19:21 | 50.18010 | 14.28148 | 15234 ft | 313 kts | 271° |
| 2026-05-06 19:21 | 50.18057 | 14.24727 | 15503 ft | 315 kts | 271° |
| 2026-05-06 19:21 | 50.18103 | 14.21283 | 15800 ft | 323 kts | 271° |
| 2026-05-06 19:21 | 50.18149 | 14.17728 | 16096 ft | 334 kts | 271° |
| 2026-05-06 19:22 | 50.18195 | 14.14116 | 16391 ft | 335 kts | 271° |
| 2026-05-06 19:22 | 50.18240 | 14.10455 | 16696 ft | 342 kts | 271° |
| 2026-05-06 19:22 | 50.18285 | 14.06716 | 16994 ft | 346 kts | 271° |
| 2026-05-06 19:22 | 50.18329 | 14.02940 | 17294 ft | 347 kts | 271° |
| 2026-05-06 19:23 | 50.18372 | 13.99192 | 17590 ft | 348 kts | 271° |
| 2026-05-06 19:23 | 50.18413 | 13.95381 | 17892 ft | 350 kts | 271° |
| 2026-05-06 19:23 | 50.18454 | 13.91601 | 18191 ft | 351 kts | 271° |
| 2026-05-06 19:23 | 50.18494 | 13.87784 | 18491 ft | 353 kts | 271° |
| 2026-05-06 19:24 | 50.18532 | 13.83959 | 18791 ft | 355 kts | 271° |
| 2026-05-06 19:24 | 50.18570 | 13.80115 | 19090 ft | 356 kts | 271° |
| 2026-05-06 19:24 | 50.18606 | 13.76226 | 19392 ft | 358 kts | 271° |
| 2026-05-06 19:24 | 50.18641 | 13.72374 | 19690 ft | 360 kts | 271° |
| 2026-05-06 19:25 | 50.18675 | 13.68440 | 19992 ft | 361 kts | 271° |
| 2026-05-06 19:25 | 50.18708 | 13.64513 | 20293 ft | 363 kts | 271° |
| 2026-05-06 19:25 | 50.18740 | 13.60546 | 20596 ft | 365 kts | 271° |
| 2026-05-06 19:25 | 50.18771 | 13.56589 | 20896 ft | 366 kts | 271° |
| 2026-05-06 19:26 | 50.18901 | 13.52638 | 21197 ft | 368 kts | 278° |
| 2026-05-06 19:26 | 50.19348 | 13.48730 | 21613 ft | 370 kts | 282° |
| 2026-05-06 19:26 | 50.19832 | 13.44753 | 22044 ft | 374 kts | 280° |
| 2026-05-06 19:26 | 50.20269 | 13.40717 | 22472 ft | 377 kts | 279° |
| 2026-05-06 19:27 | 50.20696 | 13.36664 | 22898 ft | 381 kts | 280° |
| 2026-05-06 19:27 | 50.21127 | 13.32591 | 23321 ft | 384 kts | 279° |
| 2026-05-06 19:27 | 50.21556 | 13.28492 | 23744 ft | 386 kts | 279° |
| 2026-05-06 19:27 | 50.21984 | 13.24359 | 24168 ft | 388 kts | 279° |
| 2026-05-06 19:28 | 50.22412 | 13.20202 | 24592 ft | 390 kts | 279° |
| 2026-05-06 19:28 | 50.22841 | 13.16010 | 25017 ft | 391 kts | 279° |
| 2026-05-06 19:28 | 50.23271 | 13.11785 | 25444 ft | 392 kts | 279° |
| 2026-05-06 19:28 | 50.23695 | 13.07601 | 25866 ft | 393 kts | 279° |
| 2026-05-06 19:29 | 50.24118 | 13.03408 | 26288 ft | 394 kts | 279° |
| 2026-05-06 19:29 | 50.24548 | 12.99134 | 26718 ft | 394 kts | 279° |
| 2026-05-06 19:29 | 50.24967 | 12.94941 | 27141 ft | 394 kts | 279° |
| 2026-05-06 19:29 | 50.25389 | 12.90708 | 27568 ft | 393 kts | 279° |
| 2026-05-06 19:30 | 50.25805 | 12.86514 | 27992 ft | 392 kts | 279° |
| 2026-05-06 19:30 | 50.26216 | 12.82352 | 28413 ft | 391 kts | 279° |
| 2026-05-06 19:30 | 50.26618 | 12.78271 | 28828 ft | 389 kts | 279° |
| 2026-05-06 19:30 | 50.27032 | 12.74048 | 29259 ft | 387 kts | 279° |
| 2026-05-06 19:31 | 50.27435 | 12.69925 | 29682 ft | 385 kts | 279° |
| 2026-05-06 19:31 | 50.27834 | 12.65829 | 30105 ft | 383 kts | 279° |
| 2026-05-06 19:31 | 50.28624 | 12.57660 | 30958 ft | 376 kts | 279° |
| 2026-05-06 19:32 | 50.29009 | 12.53663 | 31380 ft | 373 kts | 279° |
| 2026-05-06 19:32 | 50.29392 | 12.49664 | 31807 ft | 369 kts | 279° |
| 2026-05-06 19:32 | 50.29769 | 12.45717 | 31994 ft | 372 kts | 279° |
| 2026-05-06 19:32 | 50.30156 | 12.41657 | 32007 ft | 380 kts | 279° |
| 2026-05-06 19:33 | 50.30943 | 12.33331 | 31999 ft | 394 kts | 278° |
| 2026-05-06 19:33 | 50.31743 | 12.24810 | 31999 ft | 405 kts | 278° |
| 2026-05-06 19:34 | 50.32562 | 12.16004 | 31999 ft | 419 kts | 278° |
| 2026-05-06 19:34 | 50.33410 | 12.06812 | 31999 ft | 431 kts | 278° |
| 2026-05-06 19:35 | 50.34272 | 11.97385 | 31999 ft | 443 kts | 278° |
| 2026-05-06 19:35 | 50.35142 | 11.87776 | 31999 ft | 453 kts | 278° |
| 2026-05-06 19:36 | 50.36029 | 11.77885 | 31999 ft | 462 kts | 278° |
| 2026-05-06 19:36 | 50.36921 | 11.67844 | 31999 ft | 470 kts | 278° |
| 2026-05-06 19:37 | 50.37814 | 11.57692 | 31999 ft | 471 kts | 278° |
| 2026-05-06 19:37 | 50.38550 | 11.49246 | 31999 ft | 470 kts | 278° |
| 2026-05-06 19:38 | 50.39564 | 11.37478 | 32000 ft | 470 kts | 278° |
| 2026-05-06 19:38 | 50.40426 | 11.27366 | 32000 ft | 470 kts | 277° |
| 2026-05-06 19:39 | 50.41280 | 11.17231 | 31999 ft | 470 kts | 277° |
| 2026-05-06 19:39 | 50.42126 | 11.07103 | 32000 ft | 470 kts | 277° |
| 2026-05-06 19:40 | 50.42968 | 10.96895 | 32000 ft | 470 kts | 277° |
| 2026-05-06 19:40 | 50.43784 | 10.86900 | 31675 ft | 448 kts | 277° |
| 2026-05-06 19:41 | 50.44159 | 10.82264 | 31309 ft | 429 kts | 277° |
| 2026-05-06 19:41 | 50.44529 | 10.77679 | 30932 ft | 412 kts | 277° |
| 2026-05-06 19:41 | 50.44885 | 10.73241 | 30578 ft | 411 kts | 277° |
| 2026-05-06 19:41 | 50.45013 | 10.71634 | 30451 ft | 414 kts | 277° |
| 2026-05-06 19:42 | 50.45198 | 10.69314 | 30254 ft | 418 kts | 277° |
| 2026-05-06 19:42 | 50.45557 | 10.64803 | 29846 ft | 417 kts | 277° |
| 2026-05-06 19:42 | 50.45910 | 10.60328 | 29420 ft | 403 kts | 277° |
| 2026-05-06 19:42 | 50.46246 | 10.56058 | 29022 ft | 387 kts | 277° |
| 2026-05-06 19:43 | 50.46630 | 10.51974 | 28629 ft | 379 kts | 281° |
| 2026-05-06 19:43 | 50.47213 | 10.47935 | 28292 ft | 383 kts | 286° |
| 2026-05-06 19:43 | 50.48103 | 10.43982 | 27966 ft | 383 kts | 294° |
| 2026-05-06 19:43 | 50.49213 | 10.40210 | 27641 ft | 381 kts | 296° |
| 2026-05-06 19:44 | 50.50332 | 10.36445 | 27310 ft | 378 kts | 295° |
| 2026-05-06 19:44 | 50.51420 | 10.32720 | 26984 ft | 375 kts | 294° |
| 2026-05-06 19:44 | 50.52508 | 10.29021 | 26653 ft | 373 kts | 295° |
| 2026-05-06 19:44 | 50.53589 | 10.25378 | 26304 ft | 371 kts | 295° |
| 2026-05-06 19:45 | 50.54686 | 10.21686 | 25951 ft | 369 kts | 295° |
| 2026-05-06 19:45 | 50.55767 | 10.18044 | 25601 ft | 367 kts | 295° |
| 2026-05-06 19:45 | 50.56840 | 10.14431 | 25251 ft | 365 kts | 295° |
| 2026-05-06 19:45 | 50.57899 | 10.10863 | 24904 ft | 363 kts | 295° |
| 2026-05-06 19:46 | 50.58973 | 10.07246 | 24550 ft | 361 kts | 295° |
| 2026-05-06 19:46 | 50.60020 | 10.03712 | 24202 ft | 359 kts | 295° |
| 2026-05-06 19:46 | 50.61077 | 10.00143 | 23861 ft | 357 kts | 295° |
| 2026-05-06 19:46 | 50.62104 | 9.96672 | 23541 ft | 354 kts | 295° |
| 2026-05-06 19:47 | 50.63145 | 9.93148 | 23214 ft | 353 kts | 295° |
| 2026-05-06 19:47 | 50.64177 | 9.89651 | 22888 ft | 351 kts | 295° |
| 2026-05-06 19:47 | 50.65199 | 9.86183 | 22565 ft | 350 kts | 295° |
| 2026-05-06 19:47 | 50.66215 | 9.82731 | 22240 ft | 348 kts | 295° |
| 2026-05-06 19:48 | 50.67237 | 9.79254 | 21912 ft | 346 kts | 295° |
| 2026-05-06 19:48 | 50.68238 | 9.75843 | 21589 ft | 345 kts | 295° |
| 2026-05-06 19:48 | 50.69231 | 9.72454 | 21266 ft | 343 kts | 295° |
| 2026-05-06 19:48 | 50.70227 | 9.69048 | 20940 ft | 341 kts | 295° |
| 2026-05-06 19:49 | 50.71219 | 9.65654 | 20613 ft | 339 kts | 295° |
| 2026-05-06 19:49 | 50.72200 | 9.62291 | 20289 ft | 338 kts | 295° |
| 2026-05-06 19:49 | 50.73185 | 9.58945 | 19963 ft | 336 kts | 296° |
| 2026-05-06 19:49 | 50.74222 | 9.55682 | 19639 ft | 334 kts | 297° |
| 2026-05-06 19:50 | 50.75281 | 9.52424 | 19326 ft | 332 kts | 297° |
| 2026-05-06 19:50 | 50.76327 | 9.49157 | 19024 ft | 330 kts | 297° |
| 2026-05-06 19:50 | 50.77358 | 9.45923 | 18723 ft | 329 kts | 297° |
| 2026-05-06 19:50 | 50.78312 | 9.42668 | 18419 ft | 328 kts | 289° |
| 2026-05-06 19:51 | 50.78875 | 9.39258 | 18122 ft | 321 kts | 282° |
| 2026-05-06 19:51 | 50.79361 | 9.35826 | 17817 ft | 315 kts | 284° |
| 2026-05-06 19:51 | 50.79905 | 9.32521 | 17518 ft | 310 kts | 284° |
| 2026-05-06 19:51 | 50.80459 | 9.29225 | 17217 ft | 308 kts | 284° |
| 2026-05-06 19:52 | 50.80996 | 9.26004 | 16923 ft | 307 kts | 284° |
| 2026-05-06 19:52 | 50.81550 | 9.22700 | 16620 ft | 307 kts | 285° |
| 2026-05-06 19:52 | 50.82096 | 9.19464 | 16321 ft | 306 kts | 285° |
| 2026-05-06 19:52 | 50.82642 | 9.16217 | 16020 ft | 304 kts | 285° |
| 2026-05-06 19:53 | 50.83184 | 9.12993 | 15720 ft | 303 kts | 285° |
| 2026-05-06 19:53 | 50.83721 | 9.09802 | 15421 ft | 301 kts | 285° |
| 2026-05-06 19:53 | 50.84254 | 9.06624 | 15122 ft | 300 kts | 285° |
| 2026-05-06 19:53 | 50.84788 | 9.03432 | 14820 ft | 298 kts | 285° |
| 2026-05-06 19:54 | 50.85314 | 9.00288 | 14522 ft | 297 kts | 285° |
| 2026-05-06 19:54 | 50.85844 | 8.97108 | 14219 ft | 296 kts | 285° |
| 2026-05-06 19:54 | 50.86362 | 8.94000 | 13921 ft | 294 kts | 285° |
| 2026-05-06 19:54 | 50.86884 | 8.90858 | 13619 ft | 293 kts | 285° |
| 2026-05-06 19:55 | 50.87397 | 8.87768 | 13321 ft | 292 kts | 285° |
| 2026-05-06 19:55 | 50.87911 | 8.84669 | 13020 ft | 290 kts | 285° |
| 2026-05-06 19:55 | 50.88421 | 8.81580 | 12719 ft | 289 kts | 285° |
| 2026-05-06 19:55 | 50.88876 | 8.78482 | 12412 ft | 288 kts | 276° |
| 2026-05-06 19:56 | 50.88705 | 8.75361 | 12113 ft | 284 kts | 254° |
| 2026-05-06 19:56 | 50.88162 | 8.72411 | 11824 ft | 279 kts | 255° |
| 2026-05-06 19:56 | 50.87725 | 8.69447 | 11518 ft | 275 kts | 258° |
| 2026-05-06 19:56 | 50.87339 | 8.66519 | 11217 ft | 271 kts | 258° |
| 2026-05-06 19:57 | 50.86956 | 8.63602 | 10915 ft | 269 kts | 258° |
| 2026-05-06 19:57 | 50.86586 | 8.60731 | 10617 ft | 268 kts | 259° |
| 2026-05-06 19:57 | 50.86217 | 8.57839 | 10317 ft | 267 kts | 259° |
| 2026-05-06 19:57 | 50.85848 | 8.54947 | 10031 ft | 266 kts | 259° |
| 2026-05-06 19:58 | 50.85488 | 8.52129 | 10006 ft | 262 kts | 259° |
| 2026-05-06 19:58 | 50.85122 | 8.49263 | 9999 ft | 266 kts | 259° |
| 2026-05-06 19:58 | 50.84754 | 8.46384 | 9999 ft | 266 kts | 259° |
| 2026-05-06 19:58 | 50.84388 | 8.43527 | 9999 ft | 266 kts | 259° |
| 2026-05-06 19:59 | 50.84021 | 8.40664 | 9999 ft | 266 kts | 259° |
| 2026-05-06 19:59 | 50.83652 | 8.37800 | 9999 ft | 266 kts | 259° |
| 2026-05-06 19:59 | 50.83281 | 8.34914 | 9999 ft | 266 kts | 258° |
| 2026-05-06 19:59 | 50.82909 | 8.32041 | 9999 ft | 266 kts | 258° |
| 2026-05-06 20:00 | 50.82540 | 8.29185 | 9999 ft | 266 kts | 258° |
| 2026-05-06 20:00 | 50.82165 | 8.26292 | 10000 ft | 266 kts | 258° |
| 2026-05-06 20:00 | 50.81798 | 8.23466 | 9999 ft | 266 kts | 258° |
| 2026-05-06 20:00 | 50.81426 | 8.20610 | 10000 ft | 266 kts | 258° |
| 2026-05-06 20:01 | 50.81048 | 8.17715 | 10000 ft | 266 kts | 258° |
| 2026-05-06 20:01 | 50.80675 | 8.14860 | 9999 ft | 266 kts | 258° |
| 2026-05-06 20:01 | 50.80305 | 8.12037 | 10000 ft | 266 kts | 258° |
| 2026-05-06 20:01 | 50.79928 | 8.09164 | 10000 ft | 266 kts | 258° |
| 2026-05-06 20:02 | 50.79549 | 8.06287 | 10000 ft | 266 kts | 258° |
| 2026-05-06 20:02 | 50.79178 | 8.03468 | 10000 ft | 266 kts | 258° |
| 2026-05-06 20:02 | 50.78802 | 8.00625 | 10000 ft | 266 kts | 258° |
| 2026-05-06 20:02 | 50.78424 | 7.97762 | 9912 ft | 268 kts | 258° |
| 2026-05-06 20:03 | 50.78045 | 7.94903 | 9659 ft | 263 kts | 258° |
| 2026-05-06 20:03 | 50.77673 | 7.92109 | 9420 ft | 258 kts | 258° |
| 2026-05-06 20:03 | 50.77311 | 7.89386 | 9187 ft | 256 kts | 258° |
| 2026-05-06 20:03 | 50.76945 | 7.86638 | 8952 ft | 256 kts | 258° |
| 2026-05-06 20:04 | 50.76578 | 7.83893 | 8716 ft | 256 kts | 258° |
| 2026-05-06 20:04 | 50.76213 | 7.81167 | 8495 ft | 250 kts | 258° |
| 2026-05-06 20:04 | 50.75857 | 7.78512 | 8262 ft | 245 kts | 258° |
| 2026-05-06 20:04 | 50.75502 | 7.75872 | 8019 ft | 246 kts | 258° |
| 2026-05-06 20:05 | 50.75147 | 7.73238 | 7777 ft | 246 kts | 258° |
| 2026-05-06 20:05 | 50.74792 | 7.70604 | 7537 ft | 245 kts | 258° |
| 2026-05-06 20:05 | 50.74434 | 7.67955 | 7272 ft | 245 kts | 258° |
| 2026-05-06 20:05 | 50.74081 | 7.65342 | 6932 ft | 245 kts | 258° |
| 2026-05-06 20:06 | 50.73727 | 7.62733 | 6518 ft | 242 kts | 258° |
| 2026-05-06 20:06 | 50.73319 | 7.60178 | 6078 ft | 240 kts | 249° |
| 2026-05-06 20:06 | 50.72450 | 7.57986 | 5657 ft | 238 kts | 232° |
| 2026-05-06 20:06 | 50.71431 | 7.55930 | 5233 ft | 237 kts | 232° |
| 2026-05-06 20:07 | 50.70438 | 7.53892 | 4809 ft | 236 kts | 232° |
| 2026-05-06 20:07 | 50.69447 | 7.51863 | 4362 ft | 235 kts | 232° |
| 2026-05-06 20:07 | 50.68453 | 7.49826 | 3881 ft | 233 kts | 233° |
| 2026-05-06 20:07 | 50.67656 | 7.47616 | 3386 ft | 231 kts | 255° |
| 2026-05-06 20:08 | 50.67648 | 7.45178 | 3132 ft | 223 kts | 282° |
| 2026-05-06 20:08 | 50.68034 | 7.42753 | 3105 ft | 229 kts | 290° |
| 2026-05-06 20:08 | 50.68876 | 7.40753 | 3120 ft | 219 kts | 314° |
| 2026-05-06 20:08 | 50.69949 | 7.39033 | 3106 ft | 218 kts | 316° |
| 2026-05-06 20:09 | 50.71012 | 7.37458 | 3126 ft | 191 kts | 318° |
| 2026-05-06 20:09 | 50.71931 | 7.36131 | 3049 ft | 173 kts | 318° |
| 2026-05-06 20:09 | 50.72804 | 7.34876 | 3063 ft | 170 kts | 317° |
| 2026-05-06 20:09 | 50.73676 | 7.33615 | 3066 ft | 169 kts | 317° |
| 2026-05-06 20:10 | 50.74546 | 7.32365 | 2976 ft | 170 kts | 317° |
| 2026-05-06 20:10 | 50.75419 | 7.31110 | 2836 ft | 170 kts | 317° |
| 2026-05-06 20:10 | 50.76303 | 7.29841 | 2562 ft | 169 kts | 317° |
| 2026-05-06 20:10 | 50.77155 | 7.28616 | 2352 ft | 167 kts | 317° |
| 2026-05-06 20:11 | 50.78018 | 7.27375 | 2137 ft | 167 kts | 317° |
| 2026-05-06 20:11 | 50.78871 | 7.26149 | 1900 ft | 167 kts | 317° |
| 2026-05-06 20:11 | 50.79727 | 7.24916 | 1637 ft | 166 kts | 317° |
| 2026-05-06 20:11 | 50.80587 | 7.23677 | 1370 ft | 167 kts | 317° |
| 2026-05-06 20:12 | 50.81466 | 7.22411 | 1346 ft | 171 kts | 317° |
| 2026-05-06 20:12 | 50.82324 | 7.21174 | 1090 ft | 161 kts | 317° |
| 2026-05-06 20:12 | 50.83131 | 7.20010 | 911 ft | 157 kts | 317° |
| 2026-05-06 20:12 | 50.83947 | 7.18833 | 676 ft | 159 kts | 317° |
| 2026-05-06 20:13 | 50.84757 | 7.17655 | 518 ft | 155 kts | 317° |
| 2026-05-06 20:13 | 50.85513 | 7.16568 | 343 ft | 139 kts | 317° |
| 2026-05-06 20:13 | 50.86173 | 7.15623 | 291 ft | 98 kts | 317° |
| 2026-05-06 20:13 | 50.86595 | 7.15010 | 275 ft | 75 kts | 318° |
| 2026-05-06 20:14 | 50.86863 | 7.14510 | 262 ft | 48 kts | 285° |
| 2026-05-06 20:14 | 50.86907 | 7.14147 | 257 ft | 11 kts | 282° |
| 2026-05-06 20:14 | 50.86909 | 7.14134 | 256 ft | 0 kts | 283° |
| 2026-05-06 20:15 | 50.86911 | 7.14121 | 256 ft | 4 kts | 287° |
| 2026-05-06 20:15 | 50.86971 | 7.14010 | 253 ft | 15 kts | 316° |
| 2026-05-06 20:15 | 50.87046 | 7.13899 | 251 ft | 14 kts | 317° |
| 2026-05-06 20:15 | 50.87114 | 7.13799 | 250 ft | 14 kts | 317° |
| 2026-05-06 20:16 | 50.87202 | 7.13672 | 248 ft | 19 kts | 317° |
| 2026-05-06 20:16 | 50.87305 | 7.13525 | 246 ft | 8 kts | 317° |
| 2026-05-06 20:16 | 50.87319 | 7.13504 | 246 ft | 3 kts | 316° |
| 2026-05-06 20:16 | 50.87344 | 7.13467 | 245 ft | 6 kts | 317° |
| 2026-05-06 20:17 | 50.87405 | 7.13380 | 245 ft | 16 kts | 318° |
| 2026-05-06 20:17 | 50.87507 | 7.13233 | 245 ft | 23 kts | 316° |
| 2026-05-06 20:17 | 50.87636 | 7.13044 | 248 ft | 23 kts | 317° |
| 2026-05-06 20:17 | 50.87733 | 7.12900 | 249 ft | 10 kts | 317° |
| 2026-05-06 20:18 | 50.87744 | 7.12885 | 249 ft | 0 kts | 321° |
| 2026-05-06 20:18 | 50.87754 | 7.12873 | 249 ft | 3 kts | 319° |
| 2026-05-06 20:18 | 50.87782 | 7.12824 | 249 ft | 8 kts | 301° |
| 2026-05-06 20:18 | 50.87787 | 7.12714 | 249 ft | 10 kts | 276° |
| 2026-05-06 20:19 | 50.87828 | 7.12627 | 248 ft | 1 kts | 306° |
| 2026-05-06 20:19 | 50.87818 | 7.12598 | 247 ft | 4 kts | 233° |
| 2026-05-06 20:19 | 50.87812 | 7.12530 | 246 ft | 8 kts | 288° |
| 2026-05-06 20:19 | 50.87833 | 7.12432 | 243 ft | 10 kts | 288° |
| 2026-05-06 20:20 | 50.87839 | 7.12400 | 242 ft | 0 kts | 287° |
| 2026-05-06 20:20 | 50.87834 | 7.12425 | 242 ft | 0 kts | 288° |
| 2026-05-06 20:20 | 50.87832 | 7.12434 | 243 ft | 4 kts | 288° |
| 2026-05-06 20:20 | 50.87832 | 7.12435 | 243 ft | 0 kts | 288° |